sensor_id;sensor_type;location;lat;lon;timestamp;P1;durP1;ratioP1;P2;durP2;ratioP2
5297;SDS011;14738;42.668;23.250;2024-01-30T00:02:14;2.87;;;2.73;;
5297;SDS011;14738;42.668;23.250;2024-01-30T00:04:40;4.00;;;3.70;;
5297;SDS011;14738;42.668;23.250;2024-01-30T00:07:05;3.97;;;3.67;;
5297;SDS011;14738;42.668;23.250;2024-01-30T00:09:30;4.47;;;4.07;;
5297;SDS011;14738;42.668;23.250;2024-01-30T00:11:56;4.17;;;3.77;;
5297;SDS011;14738;42.668;23.250;2024-01-30T00:14:22;6.10;;;4.93;;
5297;SDS011;14738;42.668;23.250;2024-01-30T00:16:48;3.73;;;3.53;;
5297;SDS011;14738;42.668;23.250;2024-01-30T00:19:13;4.60;;;4.20;;
5297;SDS011;14738;42.668;23.250;2024-01-30T00:21:39;4.43;;;4.07;;
5297;SDS011;14738;42.668;23.250;2024-01-30T00:24:04;4.03;;;3.63;;
5297;SDS011;14738;42.668;23.250;2024-01-30T00:26:30;5.90;;;4.87;;
5297;SDS011;14738;42.668;23.250;2024-01-30T00:28:55;6.80;;;4.80;;
5297;SDS011;14738;42.668;23.250;2024-01-30T00:31:21;4.77;;;4.30;;
5297;SDS011;14738;42.668;23.250;2024-01-30T00:33:46;4.93;;;4.43;;
5297;SDS011;14738;42.668;23.250;2024-01-30T00:36:11;4.53;;;4.13;;
5297;SDS011;14738;42.668;23.250;2024-01-30T00:38:37;5.10;;;4.63;;
5297;SDS011;14738;42.668;23.250;2024-01-30T00:41:03;5.63;;;4.63;;
5297;SDS011;14738;42.668;23.250;2024-01-30T00:43:28;5.07;;;4.50;;
5297;SDS011;14738;42.668;23.250;2024-01-30T00:45:54;4.63;;;4.20;;
5297;SDS011;14738;42.668;23.250;2024-01-30T00:48:20;8.13;;;4.90;;
5297;SDS011;14738;42.668;23.250;2024-01-30T00:50:46;5.03;;;4.50;;
5297;SDS011;14738;42.668;23.250;2024-01-30T00:53:11;7.00;;;5.30;;
5297;SDS011;14738;42.668;23.250;2024-01-30T00:55:37;6.60;;;5.10;;
5297;SDS011;14738;42.668;23.250;2024-01-30T00:58:03;7.17;;;5.33;;
5297;SDS011;14738;42.668;23.250;2024-01-30T01:00:29;19.23;;;10.57;;
5297;SDS011;14738;42.668;23.250;2024-01-30T01:02:56;24.10;;;11.83;;
5297;SDS011;14738;42.668;23.250;2024-01-30T01:05:21;23.33;;;12.53;;
5297;SDS011;14738;42.668;23.250;2024-01-30T01:07:47;43.23;;;18.03;;
5297;SDS011;14738;42.668;23.250;2024-01-30T01:10:15;7.47;;;6.20;;
5297;SDS011;14738;42.668;23.250;2024-01-30T01:12:42;5.93;;;5.33;;
5297;SDS011;14738;42.668;23.250;2024-01-30T01:15:08;6.40;;;5.80;;
5297;SDS011;14738;42.668;23.250;2024-01-30T01:17:35;7.13;;;6.43;;
5297;SDS011;14738;42.668;23.250;2024-01-30T01:20:00;11.10;;;7.33;;
5297;SDS011;14738;42.668;23.250;2024-01-30T01:22:26;7.17;;;6.20;;
5297;SDS011;14738;42.668;23.250;2024-01-30T01:24:52;7.10;;;6.07;;
5297;SDS011;14738;42.668;23.250;2024-01-30T01:27:17;9.47;;;6.90;;
5297;SDS011;14738;42.668;23.250;2024-01-30T01:29:43;8.53;;;6.00;;
5297;SDS011;14738;42.668;23.250;2024-01-30T01:32:08;5.20;;;4.70;;
5297;SDS011;14738;42.668;23.250;2024-01-30T01:34:34;6.33;;;5.40;;
5297;SDS011;14738;42.668;23.250;2024-01-30T01:36:59;8.57;;;6.97;;
5297;SDS011;14738;42.668;23.250;2024-01-30T01:39:25;7.40;;;6.60;;
5297;SDS011;14738;42.668;23.250;2024-01-30T01:41:50;7.30;;;5.43;;
5297;SDS011;14738;42.668;23.250;2024-01-30T01:44:17;5.13;;;4.63;;
5297;SDS011;14738;42.668;23.250;2024-01-30T01:46:42;5.90;;;5.10;;
5297;SDS011;14738;42.668;23.250;2024-01-30T01:49:08;4.90;;;4.40;;
5297;SDS011;14738;42.668;23.250;2024-01-30T01:51:34;5.73;;;4.80;;
5297;SDS011;14738;42.668;23.250;2024-01-30T01:54:04;4.70;;;4.30;;
5297;SDS011;14738;42.668;23.250;2024-01-30T01:56:33;4.73;;;4.30;;
5297;SDS011;14738;42.668;23.250;2024-01-30T01:59:05;4.63;;;4.23;;
5297;SDS011;14738;42.668;23.250;2024-01-30T02:01:33;4.27;;;3.87;;
5297;SDS011;14738;42.668;23.250;2024-01-30T02:03:59;4.83;;;4.23;;
5297;SDS011;14738;42.668;23.250;2024-01-30T02:06:26;6.27;;;4.90;;
5297;SDS011;14738;42.668;23.250;2024-01-30T02:08:52;3.80;;;3.60;;
5297;SDS011;14738;42.668;23.250;2024-01-30T02:11:17;4.50;;;4.03;;
5297;SDS011;14738;42.668;23.250;2024-01-30T02:13:44;6.00;;;5.20;;
5297;SDS011;14738;42.668;23.250;2024-01-30T02:16:10;4.80;;;4.40;;
5297;SDS011;14738;42.668;23.250;2024-01-30T02:18:35;5.33;;;4.30;;
5297;SDS011;14738;42.668;23.250;2024-01-30T02:21:04;5.90;;;4.43;;
5297;SDS011;14738;42.668;23.250;2024-01-30T02:23:30;4.57;;;4.10;;
5297;SDS011;14738;42.668;23.250;2024-01-30T02:25:57;4.90;;;4.40;;
5297;SDS011;14738;42.668;23.250;2024-01-30T02:28:23;2.67;;;2.47;;
5297;SDS011;14738;42.668;23.250;2024-01-30T02:30:48;4.00;;;3.27;;
5297;SDS011;14738;42.668;23.250;2024-01-30T02:33:14;4.03;;;3.73;;
5297;SDS011;14738;42.668;23.250;2024-01-30T02:35:39;4.00;;;3.57;;
5297;SDS011;14738;42.668;23.250;2024-01-30T02:38:05;3.80;;;3.50;;
5297;SDS011;14738;42.668;23.250;2024-01-30T02:40:31;3.63;;;3.43;;
5297;SDS011;14738;42.668;23.250;2024-01-30T02:42:57;4.30;;;3.90;;
5297;SDS011;14738;42.668;23.250;2024-01-30T02:45:24;4.50;;;4.10;;
5297;SDS011;14738;42.668;23.250;2024-01-30T02:47:49;3.63;;;3.33;;
5297;SDS011;14738;42.668;23.250;2024-01-30T02:50:15;4.07;;;3.77;;
5297;SDS011;14738;42.668;23.250;2024-01-30T02:52:41;2.60;;;2.07;;
5297;SDS011;14738;42.668;23.250;2024-01-30T02:55:08;3.97;;;3.63;;
5297;SDS011;14738;42.668;23.250;2024-01-30T02:57:34;3.87;;;3.57;;
5297;SDS011;14738;42.668;23.250;2024-01-30T02:59:59;3.70;;;3.40;;
5297;SDS011;14738;42.668;23.250;2024-01-30T03:02:25;3.50;;;3.20;;
5297;SDS011;14738;42.668;23.250;2024-01-30T03:04:50;2.80;;;2.57;;
5297;SDS011;14738;42.668;23.250;2024-01-30T03:07:16;2.90;;;2.80;;
5297;SDS011;14738;42.668;23.250;2024-01-30T03:09:41;3.63;;;3.33;;
5297;SDS011;14738;42.668;23.250;2024-01-30T03:12:10;3.93;;;3.70;;
5297;SDS011;14738;42.668;23.250;2024-01-30T03:14:35;3.57;;;3.27;;
5297;SDS011;14738;42.668;23.250;2024-01-30T03:17:01;3.17;;;2.97;;
5297;SDS011;14738;42.668;23.250;2024-01-30T03:19:26;3.47;;;3.27;;
5297;SDS011;14738;42.668;23.250;2024-01-30T03:21:52;4.87;;;4.40;;
5297;SDS011;14738;42.668;23.250;2024-01-30T03:24:17;4.77;;;3.40;;
5297;SDS011;14738;42.668;23.250;2024-01-30T03:26:43;3.80;;;3.50;;
5297;SDS011;14738;42.668;23.250;2024-01-30T03:29:09;2.50;;;2.40;;
5297;SDS011;14738;42.668;23.250;2024-01-30T03:31:34;4.27;;;3.87;;
5297;SDS011;14738;42.668;23.250;2024-01-30T03:34:00;3.93;;;3.50;;
5297;SDS011;14738;42.668;23.250;2024-01-30T03:36:26;3.60;;;2.73;;
5297;SDS011;14738;42.668;23.250;2024-01-30T03:38:52;3.53;;;3.23;;
5297;SDS011;14738;42.668;23.250;2024-01-30T03:41:18;3.97;;;2.80;;
5297;SDS011;14738;42.668;23.250;2024-01-30T03:43:43;3.33;;;3.10;;
5297;SDS011;14738;42.668;23.250;2024-01-30T03:46:08;3.33;;;3.00;;
5297;SDS011;14738;42.668;23.250;2024-01-30T03:48:34;2.87;;;2.67;;
5297;SDS011;14738;42.668;23.250;2024-01-30T03:50:59;2.57;;;2.47;;
5297;SDS011;14738;42.668;23.250;2024-01-30T03:53:25;3.60;;;3.30;;
5297;SDS011;14738;42.668;23.250;2024-01-30T03:55:50;4.20;;;3.73;;
5297;SDS011;14738;42.668;23.250;2024-01-30T03:58:16;3.07;;;2.87;;
5297;SDS011;14738;42.668;23.250;2024-01-30T04:00:41;3.07;;;2.87;;
5297;SDS011;14738;42.668;23.250;2024-01-30T04:03:06;3.93;;;3.53;;
5297;SDS011;14738;42.668;23.250;2024-01-30T04:05:32;2.57;;;2.40;;
5297;SDS011;14738;42.668;23.250;2024-01-30T04:07:58;4.00;;;2.83;;
5297;SDS011;14738;42.668;23.250;2024-01-30T04:10:23;2.60;;;2.47;;
5297;SDS011;14738;42.668;23.250;2024-01-30T04:12:49;2.70;;;2.60;;
5297;SDS011;14738;42.668;23.250;2024-01-30T04:15:15;8.30;;;3.00;;
5297;SDS011;14738;42.668;23.250;2024-01-30T04:17:41;2.80;;;2.60;;
5297;SDS011;14738;42.668;23.250;2024-01-30T04:20:07;2.80;;;2.60;;
5297;SDS011;14738;42.668;23.250;2024-01-30T04:22:33;3.07;;;2.87;;
5297;SDS011;14738;42.668;23.250;2024-01-30T04:24:58;3.43;;;3.20;;
5297;SDS011;14738;42.668;23.250;2024-01-30T04:27:23;5.50;;;2.97;;
5297;SDS011;14738;42.668;23.250;2024-01-30T04:29:49;3.40;;;3.10;;
5297;SDS011;14738;42.668;23.250;2024-01-30T04:32:14;2.87;;;2.67;;
5297;SDS011;14738;42.668;23.250;2024-01-30T04:34:39;2.93;;;2.50;;
5297;SDS011;14738;42.668;23.250;2024-01-30T04:37:05;3.10;;;2.80;;
5297;SDS011;14738;42.668;23.250;2024-01-30T04:39:32;2.80;;;2.60;;
5297;SDS011;14738;42.668;23.250;2024-01-30T04:41:58;3.90;;;3.63;;
5297;SDS011;14738;42.668;23.250;2024-01-30T04:44:24;7.90;;;3.43;;
5297;SDS011;14738;42.668;23.250;2024-01-30T04:46:49;3.63;;;3.33;;
5297;SDS011;14738;42.668;23.250;2024-01-30T04:49:14;2.80;;;2.60;;
5297;SDS011;14738;42.668;23.250;2024-01-30T04:51:40;7.10;;;3.53;;
5297;SDS011;14738;42.668;23.250;2024-01-30T04:54:05;3.37;;;3.10;;
5297;SDS011;14738;42.668;23.250;2024-01-30T04:56:30;4.60;;;3.17;;
5297;SDS011;14738;42.668;23.250;2024-01-30T04:58:56;2.80;;;2.60;;
5297;SDS011;14738;42.668;23.250;2024-01-30T05:01:22;3.20;;;2.90;;
5297;SDS011;14738;42.668;23.250;2024-01-30T05:03:47;3.53;;;3.23;;
5297;SDS011;14738;42.668;23.250;2024-01-30T05:06:12;3.13;;;3.03;;
5297;SDS011;14738;42.668;23.250;2024-01-30T05:08:38;3.47;;;3.00;;
5297;SDS011;14738;42.668;23.250;2024-01-30T05:11:04;3.30;;;3.10;;
5297;SDS011;14738;42.668;23.250;2024-01-30T05:13:30;3.80;;;3.50;;
5297;SDS011;14738;42.668;23.250;2024-01-30T05:15:56;3.07;;;2.87;;
5297;SDS011;14738;42.668;23.250;2024-01-30T05:18:22;3.47;;;3.17;;
5297;SDS011;14738;42.668;23.250;2024-01-30T05:20:49;3.33;;;3.13;;
5297;SDS011;14738;42.668;23.250;2024-01-30T05:23:15;4.33;;;3.50;;
5297;SDS011;14738;42.668;23.250;2024-01-30T05:25:40;4.10;;;3.73;;
5297;SDS011;14738;42.668;23.250;2024-01-30T05:28:06;5.67;;;2.77;;
5297;SDS011;14738;42.668;23.250;2024-01-30T05:30:31;3.50;;;3.30;;
5297;SDS011;14738;42.668;23.250;2024-01-30T05:32:56;5.60;;;4.80;;
5297;SDS011;14738;42.668;23.250;2024-01-30T05:35:22;4.60;;;3.73;;
5297;SDS011;14738;42.668;23.250;2024-01-30T05:37:48;10.93;;;3.57;;
5297;SDS011;14738;42.668;23.250;2024-01-30T05:40:14;7.37;;;3.97;;
5297;SDS011;14738;42.668;23.250;2024-01-30T05:42:39;5.07;;;4.00;;
5297;SDS011;14738;42.668;23.250;2024-01-30T05:45:05;4.63;;;3.53;;
5297;SDS011;14738;42.668;23.250;2024-01-30T05:47:31;4.37;;;3.93;;
5297;SDS011;14738;42.668;23.250;2024-01-30T05:49:56;3.80;;;3.50;;
5297;SDS011;14738;42.668;23.250;2024-01-30T05:52:21;5.40;;;4.10;;
5297;SDS011;14738;42.668;23.250;2024-01-30T05:54:47;4.50;;;4.10;;
5297;SDS011;14738;42.668;23.250;2024-01-30T05:57:12;3.67;;;3.37;;
5297;SDS011;14738;42.668;23.250;2024-01-30T05:59:38;5.60;;;4.37;;
5297;SDS011;14738;42.668;23.250;2024-01-30T06:02:03;11.80;;;6.73;;
5297;SDS011;14738;42.668;23.250;2024-01-30T06:04:29;10.83;;;6.07;;
5297;SDS011;14738;42.668;23.250;2024-01-30T06:06:54;6.73;;;5.70;;
5297;SDS011;14738;42.668;23.250;2024-01-30T06:09:20;10.63;;;4.63;;
5297;SDS011;14738;42.668;23.250;2024-01-30T06:11:45;5.73;;;4.50;;
5297;SDS011;14738;42.668;23.250;2024-01-30T06:14:11;12.07;;;4.60;;
5297;SDS011;14738;42.668;23.250;2024-01-30T06:16:36;5.53;;;4.97;;
5297;SDS011;14738;42.668;23.250;2024-01-30T06:19:01;4.87;;;4.10;;
5297;SDS011;14738;42.668;23.250;2024-01-30T06:21:27;8.27;;;4.37;;
5297;SDS011;14738;42.668;23.250;2024-01-30T06:23:52;5.97;;;4.40;;
5297;SDS011;14738;42.668;23.250;2024-01-30T06:26:18;8.23;;;6.27;;
5297;SDS011;14738;42.668;23.250;2024-01-30T06:28:43;5.47;;;4.50;;
5297;SDS011;14738;42.668;23.250;2024-01-30T06:31:09;7.17;;;4.97;;
5297;SDS011;14738;42.668;23.250;2024-01-30T06:33:34;7.10;;;5.37;;
5297;SDS011;14738;42.668;23.250;2024-01-30T06:36:00;3.03;;;2.20;;
5297;SDS011;14738;42.668;23.250;2024-01-30T06:38:25;9.27;;;4.67;;
5297;SDS011;14738;42.668;23.250;2024-01-30T06:40:51;4.27;;;3.87;;
5297;SDS011;14738;42.668;23.250;2024-01-30T06:43:16;3.87;;;3.57;;
5297;SDS011;14738;42.668;23.250;2024-01-30T06:45:41;6.30;;;4.30;;
5297;SDS011;14738;42.668;23.250;2024-01-30T06:48:07;6.23;;;4.17;;
5297;SDS011;14738;42.668;23.250;2024-01-30T06:50:34;4.03;;;3.30;;
5297;SDS011;14738;42.668;23.250;2024-01-30T06:52:59;2.90;;;2.70;;
5297;SDS011;14738;42.668;23.250;2024-01-30T06:55:25;5.70;;;4.80;;
5297;SDS011;14738;42.668;23.250;2024-01-30T06:57:50;4.23;;;3.77;;
5297;SDS011;14738;42.668;23.250;2024-01-30T07:00:16;7.60;;;5.37;;
5297;SDS011;14738;42.668;23.250;2024-01-30T07:02:41;3.20;;;3.00;;
5297;SDS011;14738;42.668;23.250;2024-01-30T07:05:07;7.20;;;3.63;;
5297;SDS011;14738;42.668;23.250;2024-01-30T07:07:32;4.00;;;3.70;;
5297;SDS011;14738;42.668;23.250;2024-01-30T07:09:58;5.13;;;3.80;;
5297;SDS011;14738;42.668;23.250;2024-01-30T07:12:23;3.47;;;3.03;;
5297;SDS011;14738;42.668;23.250;2024-01-30T07:14:51;3.90;;;2.63;;
5297;SDS011;14738;42.668;23.250;2024-01-30T07:17:18;3.30;;;3.00;;
5297;SDS011;14738;42.668;23.250;2024-01-30T07:19:43;4.00;;;3.70;;
5297;SDS011;14738;42.668;23.250;2024-01-30T07:22:09;4.97;;;4.47;;
5297;SDS011;14738;42.668;23.250;2024-01-30T07:24:34;3.53;;;3.23;;
5297;SDS011;14738;42.668;23.250;2024-01-30T07:27:00;5.47;;;3.80;;
5297;SDS011;14738;42.668;23.250;2024-01-30T07:29:25;4.07;;;3.70;;
5297;SDS011;14738;42.668;23.250;2024-01-30T07:31:51;2.97;;;2.70;;
5297;SDS011;14738;42.668;23.250;2024-01-30T07:34:16;2.87;;;2.40;;
5297;SDS011;14738;42.668;23.250;2024-01-30T07:36:42;3.90;;;2.60;;
5297;SDS011;14738;42.668;23.250;2024-01-30T07:39:07;3.23;;;3.03;;
5297;SDS011;14738;42.668;23.250;2024-01-30T07:41:32;3.23;;;2.77;;
5297;SDS011;14738;42.668;23.250;2024-01-30T07:43:58;2.23;;;2.10;;
5297;SDS011;14738;42.668;23.250;2024-01-30T07:46:23;2.30;;;2.10;;
5297;SDS011;14738;42.668;23.250;2024-01-30T07:48:49;3.60;;;3.40;;
5297;SDS011;14738;42.668;23.250;2024-01-30T07:51:14;3.07;;;2.60;;
5297;SDS011;14738;42.668;23.250;2024-01-30T07:53:41;2.73;;;2.63;;
5297;SDS011;14738;42.668;23.250;2024-01-30T07:56:07;3.87;;;3.50;;
5297;SDS011;14738;42.668;23.250;2024-01-30T07:58:32;2.80;;;2.40;;
5297;SDS011;14738;42.668;23.250;2024-01-30T08:00:57;4.57;;;4.17;;
5297;SDS011;14738;42.668;23.250;2024-01-30T08:03:24;6.93;;;5.40;;
5297;SDS011;14738;42.668;23.250;2024-01-30T08:05:50;3.23;;;2.40;;
5297;SDS011;14738;42.668;23.250;2024-01-30T08:08:15;3.40;;;3.10;;
5297;SDS011;14738;42.668;23.250;2024-01-30T08:10:40;3.43;;;3.13;;
5297;SDS011;14738;42.668;23.250;2024-01-30T08:13:06;4.90;;;4.20;;
5297;SDS011;14738;42.668;23.250;2024-01-30T08:15:33;4.07;;;2.90;;
5297;SDS011;14738;42.668;23.250;2024-01-30T08:17:58;5.90;;;4.20;;
5297;SDS011;14738;42.668;23.250;2024-01-30T08:20:24;4.37;;;3.50;;
5297;SDS011;14738;42.668;23.250;2024-01-30T08:22:51;4.60;;;3.87;;
5297;SDS011;14738;42.668;23.250;2024-01-30T08:25:17;4.47;;;3.30;;
5297;SDS011;14738;42.668;23.250;2024-01-30T08:27:42;3.87;;;3.57;;
5297;SDS011;14738;42.668;23.250;2024-01-30T08:30:08;3.83;;;3.47;;
5297;SDS011;14738;42.668;23.250;2024-01-30T08:32:34;2.83;;;2.70;;
5297;SDS011;14738;42.668;23.250;2024-01-30T08:35:00;3.33;;;3.13;;
5297;SDS011;14738;42.668;23.250;2024-01-30T08:37:29;5.60;;;3.53;;
5297;SDS011;14738;42.668;23.250;2024-01-30T08:39:55;3.00;;;2.80;;
5297;SDS011;14738;42.668;23.250;2024-01-30T08:42:20;3.23;;;3.03;;
5297;SDS011;14738;42.668;23.250;2024-01-30T08:44:48;2.60;;;2.47;;
5297;SDS011;14738;42.668;23.250;2024-01-30T08:47:16;3.93;;;3.03;;
5297;SDS011;14738;42.668;23.250;2024-01-30T08:49:42;3.80;;;3.50;;
5297;SDS011;14738;42.668;23.250;2024-01-30T08:52:09;5.67;;;4.27;;
5297;SDS011;14738;42.668;23.250;2024-01-30T08:54:37;5.50;;;4.17;;
5297;SDS011;14738;42.668;23.250;2024-01-30T08:57:02;5.10;;;4.07;;
5297;SDS011;14738;42.668;23.250;2024-01-30T08:59:29;5.57;;;4.67;;
5297;SDS011;14738;42.668;23.250;2024-01-30T09:01:54;7.90;;;4.57;;
5297;SDS011;14738;42.668;23.250;2024-01-30T09:04:23;3.77;;;3.47;;
5297;SDS011;14738;42.668;23.250;2024-01-30T09:06:48;6.13;;;4.63;;
5297;SDS011;14738;42.668;23.250;2024-01-30T09:09:14;3.60;;;3.33;;
5297;SDS011;14738;42.668;23.250;2024-01-30T09:11:39;5.43;;;3.83;;
5297;SDS011;14738;42.668;23.250;2024-01-30T09:14:06;7.37;;;5.40;;
5297;SDS011;14738;42.668;23.250;2024-01-30T09:16:32;5.10;;;4.60;;
5297;SDS011;14738;42.668;23.250;2024-01-30T09:18:57;13.13;;;4.97;;
5297;SDS011;14738;42.668;23.250;2024-01-30T09:21:22;4.50;;;4.10;;
5297;SDS011;14738;42.668;23.250;2024-01-30T09:23:48;3.47;;;3.20;;
5297;SDS011;14738;42.668;23.250;2024-01-30T09:26:14;4.57;;;3.77;;
5297;SDS011;14738;42.668;23.250;2024-01-30T09:28:39;4.57;;;4.17;;
5297;SDS011;14738;42.668;23.250;2024-01-30T09:31:09;4.77;;;4.27;;
5297;SDS011;14738;42.668;23.250;2024-01-30T09:33:35;3.70;;;3.40;;
5297;SDS011;14738;42.668;23.250;2024-01-30T09:36:01;4.60;;;4.20;;
5297;SDS011;14738;42.668;23.250;2024-01-30T09:38:26;4.57;;;3.87;;
5297;SDS011;14738;42.668;23.250;2024-01-30T09:40:53;5.07;;;4.50;;
5297;SDS011;14738;42.668;23.250;2024-01-30T09:43:22;7.27;;;4.53;;
5297;SDS011;14738;42.668;23.250;2024-01-30T09:45:49;4.70;;;4.30;;
5297;SDS011;14738;42.668;23.250;2024-01-30T09:48:15;4.57;;;4.00;;
5297;SDS011;14738;42.668;23.250;2024-01-30T09:50:41;5.27;;;4.73;;
5297;SDS011;14738;42.668;23.250;2024-01-30T09:53:07;4.43;;;4.03;;
5297;SDS011;14738;42.668;23.250;2024-01-30T09:55:33;6.30;;;4.50;;
5297;SDS011;14738;42.668;23.250;2024-01-30T09:58:01;4.63;;;3.77;;
5297;SDS011;14738;42.668;23.250;2024-01-30T10:00:26;5.30;;;4.30;;
5297;SDS011;14738;42.668;23.250;2024-01-30T10:02:52;5.20;;;4.00;;
5297;SDS011;14738;42.668;23.250;2024-01-30T10:05:19;3.40;;;3.10;;
5297;SDS011;14738;42.668;23.250;2024-01-30T10:07:54;3.50;;;3.20;;
5297;SDS011;14738;42.668;23.250;2024-01-30T10:10:23;3.87;;;3.57;;
5297;SDS011;14738;42.668;23.250;2024-01-30T10:12:49;3.97;;;3.67;;
5297;SDS011;14738;42.668;23.250;2024-01-30T10:15:14;3.00;;;2.80;;
5297;SDS011;14738;42.668;23.250;2024-01-30T10:17:40;4.10;;;3.77;;
5297;SDS011;14738;42.668;23.250;2024-01-30T10:20:06;4.73;;;3.03;;
5297;SDS011;14738;42.668;23.250;2024-01-30T10:22:32;7.00;;;4.53;;
5297;SDS011;14738;42.668;23.250;2024-01-30T10:25:00;3.27;;;3.07;;
5297;SDS011;14738;42.668;23.250;2024-01-30T10:27:26;4.83;;;3.77;;
5297;SDS011;14738;42.668;23.250;2024-01-30T10:29:52;3.90;;;3.60;;
5297;SDS011;14738;42.668;23.250;2024-01-30T10:32:17;3.33;;;3.03;;
5297;SDS011;14738;42.668;23.250;2024-01-30T10:34:43;3.63;;;3.07;;
5297;SDS011;14738;42.668;23.250;2024-01-30T10:37:09;5.23;;;4.00;;
5297;SDS011;14738;42.668;23.250;2024-01-30T10:39:37;4.43;;;3.97;;
5297;SDS011;14738;42.668;23.250;2024-01-30T10:42:04;4.43;;;3.70;;
5297;SDS011;14738;42.668;23.250;2024-01-30T10:44:36;3.50;;;3.20;;
5297;SDS011;14738;42.668;23.250;2024-01-30T10:47:06;3.30;;;3.00;;
5297;SDS011;14738;42.668;23.250;2024-01-30T10:49:35;3.63;;;2.93;;
5297;SDS011;14738;42.668;23.250;2024-01-30T10:52:01;3.90;;;3.57;;
5297;SDS011;14738;42.668;23.250;2024-01-30T10:54:30;3.73;;;3.33;;
5297;SDS011;14738;42.668;23.250;2024-01-30T10:56:57;2.80;;;2.60;;
5297;SDS011;14738;42.668;23.250;2024-01-30T10:59:27;7.60;;;4.37;;
5297;SDS011;14738;42.668;23.250;2024-01-30T11:01:53;5.70;;;3.80;;
5297;SDS011;14738;42.668;23.250;2024-01-30T11:04:19;4.73;;;4.33;;
5297;SDS011;14738;42.668;23.250;2024-01-30T11:06:46;4.23;;;3.83;;
5297;SDS011;14738;42.668;23.250;2024-01-30T11:09:16;3.67;;;3.23;;
5297;SDS011;14738;42.668;23.250;2024-01-30T11:11:52;3.63;;;3.23;;
5297;SDS011;14738;42.668;23.250;2024-01-30T11:14:29;4.13;;;3.47;;
5297;SDS011;14738;42.668;23.250;2024-01-30T11:16:58;5.73;;;5.20;;
5297;SDS011;14738;42.668;23.250;2024-01-30T11:19:24;3.67;;;3.37;;
5297;SDS011;14738;42.668;23.250;2024-01-30T11:21:57;3.40;;;3.20;;
5297;SDS011;14738;42.668;23.250;2024-01-30T11:24:23;3.97;;;2.63;;
5297;SDS011;14738;42.668;23.250;2024-01-30T11:26:49;2.53;;;2.43;;
5297;SDS011;14738;42.668;23.250;2024-01-30T11:29:27;2.93;;;2.83;;
5297;SDS011;14738;42.668;23.250;2024-01-30T11:31:56;2.50;;;2.30;;
5297;SDS011;14738;42.668;23.250;2024-01-30T11:34:23;3.37;;;3.07;;
5297;SDS011;14738;42.668;23.250;2024-01-30T11:36:53;6.97;;;3.30;;
5297;SDS011;14738;42.668;23.250;2024-01-30T11:39:24;2.10;;;2.00;;
5297;SDS011;14738;42.668;23.250;2024-01-30T11:41:51;3.43;;;3.23;;
5297;SDS011;14738;42.668;23.250;2024-01-30T11:44:18;4.10;;;3.80;;
5297;SDS011;14738;42.668;23.250;2024-01-30T11:46:46;4.30;;;3.93;;
5297;SDS011;14738;42.668;23.250;2024-01-30T11:49:14;8.77;;;6.37;;
5297;SDS011;14738;42.668;23.250;2024-01-30T11:51:40;7.10;;;4.70;;
5297;SDS011;14738;42.668;23.250;2024-01-30T11:54:07;4.03;;;3.73;;
5297;SDS011;14738;42.668;23.250;2024-01-30T11:56:32;6.17;;;5.00;;
5297;SDS011;14738;42.668;23.250;2024-01-30T11:58:58;3.27;;;3.03;;
5297;SDS011;14738;42.668;23.250;2024-01-30T12:01:25;6.80;;;3.70;;
5297;SDS011;14738;42.668;23.250;2024-01-30T12:03:51;4.23;;;3.93;;
5297;SDS011;14738;42.668;23.250;2024-01-30T12:06:17;5.63;;;4.73;;
5297;SDS011;14738;42.668;23.250;2024-01-30T12:08:42;5.63;;;4.37;;
5297;SDS011;14738;42.668;23.250;2024-01-30T12:11:09;3.00;;;2.83;;
5297;SDS011;14738;42.668;23.250;2024-01-30T12:13:35;4.00;;;3.47;;
5297;SDS011;14738;42.668;23.250;2024-01-30T12:16:00;3.03;;;2.83;;
5297;SDS011;14738;42.668;23.250;2024-01-30T12:18:26;5.27;;;3.60;;
5297;SDS011;14738;42.668;23.250;2024-01-30T12:21:00;2.80;;;2.60;;
5297;SDS011;14738;42.668;23.250;2024-01-30T12:23:29;4.60;;;4.07;;
5297;SDS011;14738;42.668;23.250;2024-01-30T12:25:54;2.90;;;2.57;;
5297;SDS011;14738;42.668;23.250;2024-01-30T12:28:20;5.27;;;4.60;;
5297;SDS011;14738;42.668;23.250;2024-01-30T12:30:46;3.33;;;3.03;;
5297;SDS011;14738;42.668;23.250;2024-01-30T12:33:17;4.57;;;3.50;;
5297;SDS011;14738;42.668;23.250;2024-01-30T12:35:46;3.33;;;3.03;;
5297;SDS011;14738;42.668;23.250;2024-01-30T12:38:15;3.47;;;3.27;;
5297;SDS011;14738;42.668;23.250;2024-01-30T12:40:41;2.03;;;1.93;;
5297;SDS011;14738;42.668;23.250;2024-01-30T12:43:06;4.60;;;4.20;;
5297;SDS011;14738;42.668;23.250;2024-01-30T12:45:32;3.67;;;3.40;;
5297;SDS011;14738;42.668;23.250;2024-01-30T12:47:57;3.00;;;2.80;;
5297;SDS011;14738;42.668;23.250;2024-01-30T12:50:23;4.47;;;3.67;;
5297;SDS011;14738;42.668;23.250;2024-01-30T12:52:49;4.30;;;3.90;;
5297;SDS011;14738;42.668;23.250;2024-01-30T12:55:14;3.83;;;3.43;;
5297;SDS011;14738;42.668;23.250;2024-01-30T12:57:40;5.40;;;3.97;;
5297;SDS011;14738;42.668;23.250;2024-01-30T13:00:06;3.43;;;3.10;;
5297;SDS011;14738;42.668;23.250;2024-01-30T13:02:35;5.70;;;4.10;;
5297;SDS011;14738;42.668;23.250;2024-01-30T13:05:04;4.40;;;4.00;;
5297;SDS011;14738;42.668;23.250;2024-01-30T13:07:30;3.97;;;3.67;;
5297;SDS011;14738;42.668;23.250;2024-01-30T13:09:58;4.33;;;3.93;;
5297;SDS011;14738;42.668;23.250;2024-01-30T13:12:28;4.13;;;3.40;;
5297;SDS011;14738;42.668;23.250;2024-01-30T13:14:54;3.50;;;3.03;;
5297;SDS011;14738;42.668;23.250;2024-01-30T13:17:20;4.67;;;4.30;;
5297;SDS011;14738;42.668;23.250;2024-01-30T13:19:45;3.70;;;3.40;;
5297;SDS011;14738;42.668;23.250;2024-01-30T13:22:10;4.93;;;4.37;;
5297;SDS011;14738;42.668;23.250;2024-01-30T13:24:36;14.03;;;5.13;;
5297;SDS011;14738;42.668;23.250;2024-01-30T13:27:02;3.60;;;3.30;;
5297;SDS011;14738;42.668;23.250;2024-01-30T13:29:30;4.90;;;3.70;;
5297;SDS011;14738;42.668;23.250;2024-01-30T13:31:56;3.20;;;3.00;;
5297;SDS011;14738;42.668;23.250;2024-01-30T13:34:21;3.03;;;2.57;;
5297;SDS011;14738;42.668;23.250;2024-01-30T13:36:46;6.83;;;5.47;;
5297;SDS011;14738;42.668;23.250;2024-01-30T13:39:13;6.87;;;4.67;;
5297;SDS011;14738;42.668;23.250;2024-01-30T13:41:39;4.57;;;4.10;;
5297;SDS011;14738;42.668;23.250;2024-01-30T13:44:06;11.03;;;6.40;;
5297;SDS011;14738;42.668;23.250;2024-01-30T13:46:31;4.23;;;3.83;;
5297;SDS011;14738;42.668;23.250;2024-01-30T13:48:57;4.10;;;3.87;;
5297;SDS011;14738;42.668;23.250;2024-01-30T13:51:22;3.50;;;3.20;;
5297;SDS011;14738;42.668;23.250;2024-01-30T13:53:48;3.50;;;3.20;;
5297;SDS011;14738;42.668;23.250;2024-01-30T13:56:15;5.53;;;2.60;;
5297;SDS011;14738;42.668;23.250;2024-01-30T13:58:41;5.00;;;4.40;;
5297;SDS011;14738;42.668;23.250;2024-01-30T14:01:06;5.33;;;4.50;;
5297;SDS011;14738;42.668;23.250;2024-01-30T14:03:32;7.97;;;4.37;;
5297;SDS011;14738;42.668;23.250;2024-01-30T14:05:57;4.50;;;4.10;;
5297;SDS011;14738;42.668;23.250;2024-01-30T14:08:23;4.77;;;4.37;;
5297;SDS011;14738;42.668;23.250;2024-01-30T14:10:51;4.00;;;3.70;;
5297;SDS011;14738;42.668;23.250;2024-01-30T14:13:17;7.03;;;4.63;;
5297;SDS011;14738;42.668;23.250;2024-01-30T14:15:43;4.73;;;4.07;;
5297;SDS011;14738;42.668;23.250;2024-01-30T14:18:08;6.33;;;5.70;;
5297;SDS011;14738;42.668;23.250;2024-01-30T14:20:34;6.90;;;4.07;;
5297;SDS011;14738;42.668;23.250;2024-01-30T14:22:59;3.60;;;3.30;;
5297;SDS011;14738;42.668;23.250;2024-01-30T14:25:25;10.30;;;6.23;;
5297;SDS011;14738;42.668;23.250;2024-01-30T14:27:51;5.47;;;4.97;;
5297;SDS011;14738;42.668;23.250;2024-01-30T14:30:16;8.80;;;5.40;;
5297;SDS011;14738;42.668;23.250;2024-01-30T14:32:42;5.20;;;4.37;;
5297;SDS011;14738;42.668;23.250;2024-01-30T14:35:09;11.47;;;8.40;;
5297;SDS011;14738;42.668;23.250;2024-01-30T14:37:35;11.87;;;6.07;;
5297;SDS011;14738;42.668;23.250;2024-01-30T14:40:01;6.53;;;5.47;;
5297;SDS011;14738;42.668;23.250;2024-01-30T14:42:27;10.57;;;6.93;;